Yining, China
Current Conditions -  °F | °C
As of 9:30 AM on Monday 26 Jan 2015 (Local Time) from UAAA Reporting Station
Smoke Smoke  
Wind Chill:   Ceiling: 1000
Heat Index:   Visibility: 0.68mi
Dew Point: -4°   Wind: 2mph
Humidity: 85%   Direction: 320°NW
Pressure: 30.5"   Gusts: NA
Location:  43.9°N, 81.35°E
Report Text: UAAA 260130Z 32001MPS 1100 R23R/P2000U R23L/P2000U BR FU BKN010M18/M20 Q1033 R88/4/0542 NOSIG
Loading
Personal Weather Stations






























Interactive Weather Map New forecast layout! Learn more

10-Day Weather Forecast

Advertisements
Track Severe Weather on mobile